Time;durP1;ratioP1;P1;durP2;ratioP2;P2;SDS_P1;SDS_P2;PMS_P1;PMS_P2;Temp;Humidity;BMP_temperature;BMP_pressure;BME280_temperature;BME280_humidity;BME280_pressure;Samples;Min_cycle;Max_cycle;Signal;HPM_P1;HPM_P2
2022/10/18 00:01:03;;;;;;;82.60;18.27;;;13.80;99.90;;;;;;6217865;23;20066;-86
2022/10/18 00:03:28;;;;;;;111.63;20.98;;;12.80;99.90;;;;;;6244662;23;20024;-86
2022/10/18 00:05:54;;;;;;;63.83;17.52;;;12.80;99.90;;;;;;6216798;23;20016;-86
2022/10/18 00:08:20;;;;;;;78.85;19.70;;;13.40;99.90;;;;;;6217638;23;20475;-87
2022/10/18 00:10:47;;;;;;;73.63;17.95;;;13.70;99.90;;;;;;6248613;23;20022;-86
2022/10/18 00:13:12;;;;;;;379.05;28.67;;;13.90;99.90;;;;;;6251347;23;20018;-87
2022/10/18 00:15:38;;;;;;;248.52;22.15;;;12.60;99.90;;;;;;6218388;23;20095;-87
2022/10/18 00:18:04;;;;;;;252.52;22.92;;;12.50;99.90;;;;;;6218226;23;20440;-87
2022/10/18 00:20:30;;;;;;;87.78;20.88;;;12.50;99.90;;;;;;6216664;23;20016;-86
2022/10/18 00:22:56;;;;;;;100.32;17.52;;;12.60;99.90;;;;;;6217845;23;20016;-86
2022/10/18 00:25:21;;;;;;;232.48;24.77;;;13.70;99.90;;;;;;6243963;23;20023;-87
2022/10/18 00:27:47;;;;;;;77.47;17.80;;;12.50;99.90;;;;;;6217461;23;20521;-87
2022/10/18 00:30:13;;;;;;;111.28;19.40;;;12.60;99.90;;;;;;6244879;23;20012;-87
2022/10/18 00:32:40;;;;;;;131.43;20.67;;;12.50;99.90;;;;;;6243995;23;20019;-86
2022/10/18 00:35:07;;;;;;;63.95;17.77;;;12.40;99.90;;;;;;6217537;23;20024;-87
2022/10/18 00:37:34;;;;;;;78.68;17.30;;;12.40;99.90;;;;;;6217625;23;20016;-86
2022/10/18 00:39:59;;;;;;;98.10;18.67;;;13.30;99.90;;;;;;6217136;23;20028;-87
2022/10/18 00:42:34;;;;;;;96.40;19.13;;;12.30;99.90;;;;;;6244733;23;20016;-86
2022/10/18 00:45:19;;;;;;;77.82;18.27;;;12.30;99.90;;;;;;6218030;23;20486;-86
2022/10/18 00:47:51;;;;;;;70.28;16.23;;;12.20;99.90;;;;;;6225078;23;20035;-86
2022/10/18 00:50:18;;;;;;;75.13;16.55;;;12.20;99.90;;;;;;6218379;23;20095;-87
2022/10/18 00:52:52;;;;;;;75.05;17.85;;;12.10;99.90;;;;;;6218455;23;20012;-87
2022/10/18 00:55:18;;;;;;;65.05;16.17;;;12.10;99.90;;;;;;6243889;23;20016;-87
2022/10/18 00:57:44;;;;;;;123.03;17.95;;;12.10;99.90;;;;;;6217872;23;20020;-87
2022/10/18 01:00:11;;;;;;;102.75;15.75;;;12.10;99.90;;;;;;6244168;23;20012;-86
2022/10/18 01:02:40;;;;;;;53.10;13.60;;;12.10;99.90;;;;;;6218856;23;20052;-87
2022/10/18 01:05:06;;;;;;;57.33;15.07;;;12.10;99.90;;;;;;6246416;23;20306;-88
2022/10/18 01:07:57;;;;;;;59.42;15.15;;;12.20;99.90;;;;;;6219219;23;20012;-87
2022/10/18 01:14:19;;;;;;;50.88;15.82;;;12.20;99.90;;;;;;6219204;23;20016;-87
2022/10/18 01:17:12;;;;;;;62.47;15.52;;;12.20;99.90;;;;;;6245619;23;20030;-87
2022/10/18 01:20:16;;;;;;;129.98;19.83;;;12.90;99.90;;;;;;6246395;23;20034;-87
2022/10/18 01:23:32;;;;;;;181.73;22.52;;;12.30;99.90;;;;;;6215498;23;20070;-87
2022/10/18 01:26:25;;;;;;;180.48;25.05;;;12.30;99.90;;;;;;6221024;23;20353;-87
2022/10/18 01:29:09;;;;;;;207.02;24.73;;;12.40;99.90;;;;;;6219122;23;20039;-87
2022/10/18 01:35:36;;;;;;;235.75;25.27;;;12.10;99.90;;;;;;6245701;23;20015;-86
2022/10/18 01:38:07;;;;;;;480.48;47.42;;;12.10;99.90;;;;;;6218264;23;20016;-87
2022/10/18 01:40:44;;;;;;;595.85;51.70;;;12.60;99.90;;;;;;6238932;23;20066;-87
2022/10/18 01:43:20;;;;;;;458.00;46.03;;;14.00;99.90;;;;;;6244947;23;20016;-86
2022/10/18 01:45:46;;;;;;;437.30;40.72;;;13.30;99.90;;;;;;6246033;23;20023;-86
2022/10/18 01:48:22;;;;;;;424.08;37.95;;;13.70;99.90;;;;;;6167629;23;20050;-87
2022/10/18 01:51:10;;;;;;;;;;;;;;;;;;;;;
2022/10/18 01:57:34;;;;;;;458.15;36.75;;;12.70;99.90;;;;;;6191663;23;20032;-86
2022/10/18 02:00:30;;;;;;;287.75;30.75;;;12.60;99.90;;;;;;6225562;23;20082;-86
2022/10/18 02:03:55;;;;;;;340.27;34.70;;;12.60;99.90;;;;;;6246241;23;20341;-87
2022/10/18 02:10:42;;;;;;;477.30;38.20;;;12.70;99.90;;;;;;6152138;23;20022;-87
2022/10/18 02:13:11;;;;;;;307.92;30.38;;;12.60;99.90;;;;;;6179110;23;20031;-86
2022/10/18 02:15:40;;;;;;;460.02;82.57;;;12.60;99.90;;;;;;6218427;23;20023;-87
2022/10/18 02:18:10;;;;;;;603.95;145.05;;;12.60;99.90;;;;;;6218179;23;20387;-86
2022/10/18 02:20:38;;;;;;;589.97;109.13;;;12.60;99.90;;;;;;6245533;23;20322;-87
2022/10/18 02:23:07;;;;;;;486.63;100.15;;;12.60;99.90;;;;;;6218130;23;20027;-86
2022/10/18 02:25:33;;;;;;;590.33;107.03;;;13.80;99.90;;;;;;6217790;23;20016;-87
2022/10/18 02:28:00;;;;;;;398.02;43.17;;;12.60;99.90;;;;;;6245442;23;20027;-87
2022/10/18 02:30:48;;;;;;;464.92;55.70;;;13.40;99.90;;;;;;6217906;23;20020;-87
2022/10/18 02:33:30;;;;;;;555.70;85.68;;;12.60;99.90;;;;;;6166784;23;20078;-87
2022/10/18 02:38:55;;;;;;;532.38;75.32;;;12.70;99.90;;;;;;6213137;23;20028;-87
2022/10/18 02:41:26;;;;;;;496.00;43.03;;;14.10;99.90;;;;;;6214418;23;20017;-87
2022/10/18 02:43:52;;;;;;;501.35;46.83;;;12.70;99.90;;;;;;6188505;23;20017;-87
2022/10/18 02:46:19;;;;;;;439.30;41.25;;;12.70;99.90;;;;;;6212755;23;20024;-86
2022/10/18 02:48:44;;;;;;;307.60;30.92;;;12.70;99.90;;;;;;6215644;23;20009;-86
2022/10/18 02:51:10;;;;;;;360.92;32.13;;;13.90;99.90;;;;;;6213196;23;20111;-86
2022/10/18 02:53:36;;;;;;;347.58;32.90;;;12.80;99.90;;;;;;6214695;23;20078;-87
2022/10/18 02:56:02;;;;;;;424.15;63.22;;;12.80;99.90;;;;;;6188350;23;20381;-87
2022/10/18 02:58:28;;;;;;;384.05;49.28;;;12.80;99.90;;;;;;6213464;23;20095;-87
2022/10/18 03:00:56;;;;;;;378.92;48.15;;;12.80;99.90;;;;;;6212265;23;20027;-87
2022/10/18 03:03:22;;;;;;;315.70;39.58;;;12.90;99.90;;;;;;6214943;23;20024;-87
2022/10/18 03:05:51;;;;;;;269.35;30.38;;;13.70;99.90;;;;;;6213216;23;20012;-86
2022/10/18 03:08:18;;;;;;;332.73;34.40;;;12.90;99.90;;;;;;6214017;23;20012;-87
2022/10/18 03:10:45;;;;;;;353.02;59.90;;;14.00;99.90;;;;;;6214110;23;20465;-87
2022/10/18 03:13:10;;;;;;;219.50;27.35;;;14.20;99.90;;;;;;6226608;23;20071;-86
2022/10/18 03:15:36;;;;;;;309.98;52.70;;;12.90;99.90;;;;;;6214218;23;20017;-86
2022/10/18 03:18:02;;;;;;;281.42;34.85;;;12.90;99.90;;;;;;6188660;23;20016;-86
2022/10/18 03:20:28;;;;;;;293.52;30.85;;;12.80;99.90;;;;;;6187803;23;20013;-86
2022/10/18 03:22:53;;;;;;;227.65;26.23;;;13.20;99.90;;;;;;6212936;23;20099;-86
2022/10/18 03:25:19;;;;;;;251.30;28.63;;;12.80;99.90;;;;;;6214750;23;20013;-87
2022/10/18 03:27:48;;;;;;;282.08;49.30;;;12.70;99.90;;;;;;6212914;23;20032;-87
2022/10/18 03:30:14;;;;;;;355.75;36.35;;;13.60;99.90;;;;;;6213701;23;20039;-87
2022/10/18 03:32:40;;;;;;;373.05;51.05;;;12.80;99.90;;;;;;6213272;23;20445;-87
2022/10/18 03:35:08;;;;;;;292.33;38.50;;;13.80;99.90;;;;;;6214900;23;20074;-87
2022/10/18 03:37:34;;;;;;;382.63;38.03;;;12.70;99.90;;;;;;6212142;23;20075;-87
2022/10/18 03:40:03;;;;;;;349.35;34.67;;;13.50;99.90;;;;;;6213516;23;20402;-87
2022/10/18 03:42:31;;;;;;;373.30;48.30;;;12.60;99.90;;;;;;6184565;23;20832;-87
2022/10/18 03:44:57;;;;;;;276.10;33.83;;;13.70;99.90;;;;;;6182758;23;20017;-87
2022/10/18 03:47:22;;;;;;;250.90;30.42;;;13.50;99.90;;;;;;6182958;23;20005;-87
2022/10/18 03:50:06;;;;;;;355.92;49.92;;;12.60;99.90;;;;;;6200592;23;20341;-87
2022/10/18 03:52:31;;;;;;;350.40;34.95;;;12.70;99.90;;;;;;6184381;23;20067;-87
2022/10/18 03:57:59;;;;;;;327.73;35.97;;;12.60;99.90;;;;;;6214242;23;20187;-87
2022/10/18 04:00:43;;;;;;;296.13;31.77;;;13.80;99.90;;;;;;6246816;23;20020;-86
2022/10/18 04:03:09;;;;;;;;;;;13.50;99.90;;;;;;6216997;23;20023;-86
2022/10/18 04:05:35;;;;;;;263.10;27.10;;;12.50;99.90;;;;;;6215969;23;19950;-87
2022/10/18 04:08:01;;;;;;;267.70;26.58;;;12.40;99.90;;;;;;6217651;23;20020;-86
2022/10/18 04:10:27;;;;;;;304.77;33.38;;;13.70;99.90;;;;;;6217231;23;20460;-87
2022/10/18 04:12:53;;;;;;;270.52;37.85;;;12.30;99.90;;;;;;6244578;23;20023;-87
2022/10/18 04:15:22;;;;;;;261.55;34.83;;;12.50;99.90;;;;;;6217471;23;20012;-86
2022/10/18 04:18:14;;;;;;;251.07;34.17;;;12.40;99.90;;;;;;6213358;23;20016;-86
2022/10/18 04:21:01;;;;;;;;;;;12.30;99.90;;;;;;6218607;23;20012;-86
2022/10/18 04:23:55;;;;;;;254.90;27.40;;;12.30;99.90;;;;;;6246183;23;20051;-86
2022/10/18 04:26:43;;;;;;;190.40;24.10;;;12.40;99.90;;;;;;6248320;23;20027;-87
2022/10/18 04:29:27;;;;;;;265.00;27.17;;;12.40;99.90;;;;;;6251088;23;20016;-87
2022/10/18 04:32:28;;;;;;;251.15;27.77;;;11.50;99.90;;;;;;6217265;23;20020;-87
2022/10/18 04:42:15;;;;;;;249.35;25.55;;;11.60;99.90;;;;;;6246419;23;20348;-87
2022/10/18 04:44:41;;;;;;;232.48;25.08;;;13.50;99.90;;;;;;6220059;23;20024;-87
2022/10/18 04:47:06;;;;;;;193.60;24.15;;;13.70;99.90;;;;;;6218304;23;20421;-87
2022/10/18 04:49:32;;;;;;;182.63;25.55;;;12.20;99.90;;;;;;6219756;23;20058;-87
2022/10/18 04:51:57;;;;;;;209.85;24.98;;;12.50;99.90;;;;;;6220032;23;20047;-87
2022/10/18 04:54:23;;;;;;;349.63;31.20;;;12.30;99.90;;;;;;6245747;23;20020;-87
2022/10/18 04:56:49;;;;;;;169.23;23.38;;;12.20;99.90;;;;;;6246723;23;20021;-87
2022/10/18 04:59:15;;;;;;;233.82;26.90;;;12.90;99.90;;;;;;6252582;22;20024;-87
2022/10/18 05:01:40;;;;;;;209.90;26.90;;;13.40;99.90;;;;;;6226433;23;20075;-87
2022/10/18 05:04:06;;;;;;;210.70;25.20;;;12.30;99.90;;;;;;6219720;23;20020;-87
2022/10/18 05:06:52;;;;;;;216.15;24.63;;;12.30;99.90;;;;;;6247841;23;20460;-87
2022/10/18 05:09:23;;;;;;;265.05;27.75;;;12.90;99.90;;;;;;6244843;23;20020;-86
2022/10/18 05:11:52;;;;;;;178.40;23.45;;;12.40;99.90;;;;;;6219493;23;20020;-86
2022/10/18 05:14:20;;;;;;;213.23;24.20;;;13.00;99.90;;;;;;6244370;23;20130;-87
2022/10/18 05:16:46;;;;;;;208.73;22.95;;;13.20;99.90;;;;;;6246199;23;20055;-87
2022/10/18 05:19:12;;;;;;;179.45;21.25;;;13.80;99.90;;;;;;6218978;23;20548;-87
2022/10/18 05:21:40;;;;;;;158.00;20.73;;;13.00;99.90;;;;;;6244470;23;20016;-86
2022/10/18 05:24:06;;;;;;;226.32;25.60;;;13.80;99.90;;;;;;6246226;23;20008;-87
2022/10/18 05:26:38;;;;;;;170.40;20.98;;;12.30;99.90;;;;;;6219277;23;20016;-87
2022/10/18 05:29:10;;;;;;;193.05;23.70;;;12.30;99.90;;;;;;6218312;23;20016;-87
2022/10/18 05:31:36;;;;;;;137.00;20.40;;;13.10;99.90;;;;;;6218898;23;20112;-87
2022/10/18 05:34:30;;;;;;;120.65;18.73;;;12.30;99.90;;;;;;6219287;23;20393;-87
2022/10/18 05:37:14;;;;;;;164.77;21.80;;;12.20;99.90;;;;;;6256743;22;20020;-87
2022/10/18 05:39:40;;;;;;;;;;;13.10;99.90;;;;;;6247083;23;20070;-87
2022/10/18 05:42:26;;;;;;;164.13;20.80;;;13.40;99.90;;;;;;6245579;23;19911;-87
2022/10/18 05:44:55;;;;;;;177.45;24.80;;;12.10;99.90;;;;;;6218836;23;20393;-82
2022/10/18 05:55:05;;;;;;;191.27;26.30;;;12.00;99.90;;;;;;6245670;23;20039;-82
2022/10/18 05:57:50;;;;;;;127.07;21.92;;;12.00;99.90;;;;;;6245154;23;20012;-82
2022/10/18 06:00:19;;;;;;;118.57;20.83;;;12.00;99.90;;;;;;6245764;23;20095;-82
2022/10/18 06:02:44;;;;;;;109.18;20.42;;;11.90;99.90;;;;;;6246001;23;20013;-83
2022/10/18 06:05:10;;;;;;;136.07;22.27;;;12.10;99.90;;;;;;6217978;23;20095;-82
2022/10/18 06:07:36;;;;;;;119.18;20.70;;;11.80;99.90;;;;;;6218994;23;20097;-83
2022/10/18 06:10:01;;;;;;;111.03;19.65;;;12.70;99.90;;;;;;6219385;23;20012;-83
2022/10/18 06:12:27;;;;;;;126.13;21.08;;;12.10;99.90;;;;;;6219476;23;20016;-82
2022/10/18 06:14:55;;;;;;;116.68;19.92;;;11.70;99.90;;;;;;6245495;23;20337;-82
2022/10/18 06:17:20;;;;;;;135.65;20.58;;;11.70;99.90;;;;;;6243982;23;20020;-82
2022/10/18 06:19:46;;;;;;;124.80;20.27;;;11.70;99.90;;;;;;6245524;23;20342;-82
2022/10/18 06:22:11;;;;;;;105.85;19.00;;;11.60;99.90;;;;;;6217834;23;20024;-82
2022/10/18 06:24:37;;;;;;;78.15;17.50;;;11.70;99.90;;;;;;6245177;23;20643;-82
2022/10/18 06:27:07;;;;;;;101.82;17.73;;;12.10;99.90;;;;;;6245404;23;20099;-82
2022/10/18 06:29:37;;;;;;;104.43;18.45;;;11.70;99.90;;;;;;6205345;23;20016;-81
2022/10/18 06:32:04;;;;;;;73.32;16.20;;;11.60;99.90;;;;;;6187612;23;20016;-82
2022/10/18 06:34:29;;;;;;;101.68;17.48;;;11.60;99.90;;;;;;6215042;23;20024;-82
2022/10/18 06:36:55;;;;;;;72.93;16.17;;;11.60;99.90;;;;;;6215342;23;20379;-82
2022/10/18 06:39:20;;;;;;;109.13;17.38;;;11.60;99.90;;;;;;6187239;23;20008;-82
2022/10/18 06:41:46;;;;;;;75.15;16.08;;;11.50;99.90;;;;;;6215349;23;20020;-81
2022/10/18 06:44:13;;;;;;;67.88;14.80;;;11.70;99.90;;;;;;6188148;23;20044;-82
2022/10/18 06:46:45;;;;;;;91.63;16.67;;;11.40;99.90;;;;;;6214368;23;20027;-82
2022/10/18 06:49:13;;;;;;;70.47;15.82;;;11.40;99.90;;;;;;6187607;23;20360;-82
2022/10/18 06:51:39;;;;;;;104.45;16.92;;;12.50;99.90;;;;;;6181532;23;20013;-81
2022/10/18 06:58:49;;;;;;;88.95;16.08;;;10.70;99.90;;;;;;6245540;23;20081;-82
2022/10/18 07:01:16;;;;;;;124.22;17.67;;;11.40;99.90;;;;;;6243917;23;20026;-82
2022/10/18 07:03:43;;;;;;;109.45;17.17;;;11.30;99.90;;;;;;6217672;23;20012;-81
2022/10/18 07:06:11;;;;;;;92.28;16.27;;;11.30;99.90;;;;;;6217561;23;20467;-82
2022/10/18 07:08:37;;;;;;;108.10;16.58;;;11.30;99.90;;;;;;6244397;23;20062;-82
2022/10/18 07:11:04;;;;;;;89.72;16.10;;;11.30;99.90;;;;;;6244776;23;20016;-82
2022/10/18 07:13:31;;;;;;;120.93;15.85;;;11.30;99.90;;;;;;6244780;23;20019;-82
2022/10/18 07:16:17;;;;;;;94.47;15.95;;;11.30;99.90;;;;;;6245603;23;20016;-82
2022/10/18 07:18:46;;;;;;;67.70;14.90;;;11.40;99.90;;;;;;6218243;23;20020;-82
2022/10/18 07:21:13;;;;;;;39.42;11.68;;;11.40;99.90;;;;;;6216884;23;20012;-82
2022/10/18 07:23:55;;;;;;;47.22;11.95;;;11.40;99.90;;;;;;6243315;23;20020;-82
2022/10/18 07:26:23;;;;;;;68.80;13.25;;;11.30;99.90;;;;;;6244938;23;20016;-82
2022/10/18 07:28:57;;;;;;;76.65;13.40;;;11.40;99.90;;;;;;6243732;23;20340;-82
2022/10/18 07:31:32;;;;;;;58.00;13.07;;;11.30;99.90;;;;;;6206151;23;20073;-82
2022/10/18 07:33:58;;;;;;;41.63;11.48;;;11.30;99.90;;;;;;6245378;23;20444;-82
2022/10/18 07:36:24;;;;;;;55.00;12.77;;;11.40;99.90;;;;;;6216804;23;20013;-82
2022/10/18 07:38:51;;;;;;;63.58;15.05;;;11.40;99.90;;;;;;6218023;23;20016;-82
2022/10/18 07:41:17;;;;;;;80.35;16.38;;;11.40;99.90;;;;;;6244890;23;20019;-82
2022/10/18 07:43:49;;;;;;;69.47;16.17;;;11.40;99.90;;;;;;6217144;23;20012;-82
2022/10/18 07:46:16;;;;;;;72.35;17.27;;;11.50;99.90;;;;;;6217442;23;20028;-82
2022/10/18 07:48:42;;;;;;;52.78;16.63;;;11.50;99.90;;;;;;6244377;23;20058;-82
2022/10/18 07:51:08;;;;;;;55.15;15.55;;;11.60;99.90;;;;;;6217698;23;20337;-82
2022/10/18 07:53:33;;;;;;;46.05;13.07;;;11.60;99.90;;;;;;6218069;23;20096;-82
2022/10/18 07:56:01;;;;;;;42.60;12.88;;;11.70;99.90;;;;;;6244261;23;20020;-82
2022/10/18 07:58:27;;;;;;;36.35;12.20;;;11.70;99.90;;;;;;6217737;23;20345;-82
2022/10/18 08:01:05;;;;;;;40.00;12.38;;;12.00;99.90;;;;;;6216662;23;20313;-82
2022/10/18 08:03:30;;;;;;;44.63;12.80;;;11.70;99.90;;;;;;6243793;23;20031;-82
2022/10/18 08:05:56;;;;;;;31.38;11.07;;;11.60;99.90;;;;;;6245113;23;20012;-82
2022/10/18 08:08:22;;;;;;;33.95;11.95;;;11.80;99.90;;;;;;6217576;23;20337;-82
2022/10/18 08:10:48;;;;;;;34.05;12.30;;;11.80;99.90;;;;;;6218178;23;20099;-82
2022/10/18 08:13:14;;;;;;;79.22;14.88;;;12.70;99.90;;;;;;6246215;23;20051;-82
2022/10/18 08:15:40;;;;;;;53.42;13.95;;;11.90;99.90;;;;;;6219851;23;20095;-82
2022/10/18 08:18:05;;;;;;;86.68;13.98;;;12.00;99.90;;;;;;6218855;23;20048;-83
2022/10/18 08:20:32;;;;;;;44.95;12.98;;;12.00;99.90;;;;;;6204489;23;20031;-82
2022/10/18 08:22:58;;;;;;;28.95;11.02;;;12.40;99.90;;;;;;6247132;23;20012;-82
2022/10/18 08:25:24;;;;;;;36.70;11.80;;;11.90;99.90;;;;;;6218369;23;20017;-82
2022/10/18 08:27:49;;;;;;;30.92;11.65;;;11.90;99.90;;;;;;6219574;23;20027;-82
2022/10/18 08:30:18;;;;;;;32.92;10.68;;;12.00;99.90;;;;;;6219264;23;20106;-82
2022/10/18 08:32:43;;;;;;;32.13;11.82;;;12.10;99.90;;;;;;6218818;23;20023;-82
2022/10/18 08:35:09;;;;;;;28.42;11.32;;;12.50;99.90;;;;;;6219561;23;20012;-83
2022/10/18 08:37:35;;;;;;;26.33;10.30;;;12.00;99.90;;;;;;6244697;23;20426;-82
2022/10/18 08:40:00;;;;;;;26.58;10.25;;;12.00;99.90;;;;;;6219149;23;20016;-82
2022/10/18 08:42:48;;;;;;;28.60;10.55;;;12.10;99.90;;;;;;6245857;23;20015;-82
2022/10/18 08:45:14;;;;;;;25.45;11.90;;;12.00;99.90;;;;;;6218424;23;20344;-83
2022/10/18 08:47:47;;;;;;;30.40;11.68;;;12.10;99.90;;;;;;6219712;23;20023;-83
2022/10/18 08:50:20;;;;;;;22.65;10.13;;;12.00;99.90;;;;;;6246469;23;20019;-81
2022/10/18 08:53:25;;;;;;;27.45;10.10;;;12.00;99.90;;;;;;6245739;23;20023;-82
2022/10/18 08:56:02;;;;;;;25.92;10.10;;;12.00;99.90;;;;;;6219522;23;20336;-81
2022/10/18 08:58:32;;;;;;;25.70;10.55;;;12.30;99.90;;;;;;6219335;23;20098;-81
2022/10/18 09:01:14;;;;;;;20.20;9.10;;;12.10;99.90;;;;;;6244447;23;20324;-81
2022/10/18 09:04:22;;;;;;;29.60;10.13;;;12.20;99.90;;;;;;6219794;23;20457;-81
2022/10/18 09:06:51;;;;;;;24.73;9.20;;;12.20;99.90;;;;;;6245959;23;20089;-83
2022/10/18 09:09:25;;;;;;;22.33;9.82;;;12.20;99.90;;;;;;6219278;23;20456;-82
2022/10/18 09:18:35;;;;;;;22.48;10.20;;;12.60;99.90;;;;;;6246346;23;20027;-80
2022/10/18 09:21:24;;;;;;;25.65;11.30;;;12.50;99.90;;;;;;6245925;23;20024;-81
2022/10/18 09:27:46;;;;;;;24.95;10.63;;;12.40;99.90;;;;;;6246402;23;20111;-81
2022/10/18 09:30:36;;;;;;;21.35;10.18;;;12.40;99.90;;;;;;6246444;23;20020;-81
2022/10/18 09:33:38;;;;;;;22.63;10.85;;;12.40;99.90;;;;;;6246379;23;20476;-83
2022/10/18 09:36:34;;;;;;;20.63;10.60;;;12.50;99.90;;;;;;6217549;23;20074;-81
2022/10/18 09:39:03;;;;;;;23.77;11.00;;;12.60;99.90;;;;;;6245477;23;20019;-81
2022/10/18 09:42:01;;;;;;;26.10;11.30;;;12.70;99.90;;;;;;6217219;23;20024;-81
2022/10/18 09:44:33;;;;;;;24.13;11.15;;;12.90;99.90;;;;;;6244480;23;20793;-81
2022/10/18 09:47:08;;;;;;;20.33;9.50;;;12.90;99.90;;;;;;6217934;23;20464;-82
2022/10/18 09:49:42;;;;;;;21.10;9.68;;;13.00;99.90;;;;;;6217561;23;20020;-82
2022/10/18 09:52:18;;;;;;;18.77;9.38;;;13.10;99.90;;;;;;6218476;23;20019;-82
2022/10/18 09:54:54;;;;;;;21.55;9.70;;;12.90;99.90;;;;;;6219261;23;20016;-82
2022/10/18 09:57:34;;;;;;;18.85;8.95;;;12.90;99.90;;;;;;6244819;23;20055;-82
2022/10/18 10:00:02;;;;;;;20.55;9.57;;;13.00;99.90;;;;;;6245309;23;20516;-81
2022/10/18 10:02:28;;;;;;;17.85;8.25;;;13.10;99.90;;;;;;6244955;23;20078;-81
2022/10/18 10:04:56;;;;;;;24.15;9.10;;;13.30;99.90;;;;;;6218866;23;20008;-81
2022/10/18 10:07:32;;;;;;;19.23;8.48;;;13.40;99.90;;;;;;6215520;23;20065;-81
2022/10/18 10:10:15;;;;;;;16.27;8.57;;;13.50;99.90;;;;;;6216612;23;20012;-81
2022/10/18 10:12:41;;;;;;;20.80;9.40;;;13.70;99.90;;;;;;6218491;23;20027;-81
2022/10/18 10:15:07;;;;;;;19.48;8.60;;;14.80;99.90;;;;;;6217621;23;20016;-81
2022/10/18 10:17:33;;;;;;;18.60;7.97;;;14.00;99.90;;;;;;6216069;23;20023;-81
2022/10/18 10:20:03;;;;;;;22.45;8.10;;;14.10;99.90;;;;;;6245154;23;20016;-82
2022/10/18 10:22:38;;;;;;;21.48;9.25;;;14.10;99.90;;;;;;6217915;23;20026;-82
2022/10/18 10:25:04;;;;;;;16.92;7.30;;;14.30;99.90;;;;;;6244277;23;20012;-82
2022/10/18 10:27:42;;;;;;;16.15;6.30;;;14.30;99.90;;;;;;6244994;23;20055;-80
2022/10/18 10:30:31;;;;;;;15.45;6.63;;;14.50;99.90;;;;;;6218354;23;20475;-82
2022/10/18 10:32:56;;;;;;;16.45;6.57;;;14.50;99.90;;;;;;6218732;23;20012;-81
2022/10/18 10:35:30;;;;;;;13.13;5.82;;;14.60;99.90;;;;;;6245105;23;20506;-80
2022/10/18 10:37:56;;;;;;;14.23;5.85;;;14.80;99.90;;;;;;6217267;23;20016;-82
2022/10/18 10:40:24;;;;;;;18.48;6.05;;;14.80;99.90;;;;;;6244892;23;20448;-82
2022/10/18 10:43:06;;;;;;;17.85;5.38;;;15.00;99.90;;;;;;6218214;23;20326;-83
2022/10/18 10:45:36;;;;;;;17.00;5.25;;;15.20;99.90;;;;;;6243537;23;20356;-81
2022/10/18 10:48:06;;;;;;;16.13;5.22;;;15.20;99.90;;;;;;6245435;23;20020;-79
2022/10/18 10:50:52;;;;;;;14.98;4.93;;;15.10;99.90;;;;;;6218417;23;20024;-79
2022/10/18 10:53:55;;;;;;;15.43;4.50;;;15.00;99.90;;;;;;6244374;23;20040;-79
2022/10/18 10:56:35;;;;;;;11.90;3.85;;;15.10;99.90;;;;;;6216975;23;20020;-80
2022/10/18 10:59:16;;;;;;;14.15;4.18;;;15.10;99.90;;;;;;6244136;23;20020;-79
2022/10/18 11:01:44;;;;;;;15.85;3.97;;;15.00;99.90;;;;;;6217938;23;20043;-79
2022/10/18 11:04:24;;;;;;;16.20;3.80;;;14.80;99.90;;;;;;6244902;23;20012;-80
2022/10/18 11:07:23;;;;;;;14.03;3.83;;;14.80;99.90;;;;;;5175400;27;500144;-81
2022/10/18 11:10:12;;;;;;;11.07;3.90;;;15.00;99.90;;;;;;5174549;27;20061;-80
2022/10/18 11:13:09;;;;;;;11.27;3.10;;;15.00;99.90;;;;;;5193183;27;20033;-80
2022/10/18 11:15:40;;;;;;;11.98;3.25;;;15.20;99.90;;;;;;5173957;27;20038;-80
2022/10/18 11:18:13;;;;;;;15.30;3.88;;;15.50;99.90;;;;;;5173953;27;20098;-81
2022/10/18 11:20:51;;;;;;;15.20;3.47;;;15.50;99.90;;;;;;5192505;27;20042;-80
2022/10/18 11:23:26;;;;;;;14.95;3.35;;;15.70;99.90;;;;;;5192689;27;20094;-81
2022/10/18 11:26:02;;;;;;;9.73;2.70;;;15.80;99.90;;;;;;5193072;27;20057;-80
2022/10/18 11:28:36;;;;;;;9.82;2.67;;;16.30;99.90;;;;;;5172878;27;20133;-81
2022/10/18 11:31:28;;;;;;;12.18;2.40;;;15.90;99.90;;;;;;5192836;27;20059;-81
2022/10/18 11:34:17;;;;;;;9.82;2.38;;;15.90;99.90;;;;;;5173314;27;20098;-81
2022/10/18 11:37:09;;;;;;;7.43;1.90;;;16.00;99.90;;;;;;5195674;27;20046;-81
2022/10/18 11:39:40;;;;;;;9.43;2.25;;;16.10;99.90;;;;;;5173979;27;20089;-81
2022/10/18 11:42:12;;;;;;;9.63;2.00;;;16.10;99.90;;;;;;5172653;27;20174;-80
2022/10/18 11:44:51;;;;;;;9.18;2.20;;;16.80;99.90;;;;;;5173855;27;20045;-81
2022/10/18 11:47:34;;;;;;;10.32;1.98;;;16.30;99.90;;;;;;5173545;27;20123;-82
2022/10/18 11:50:25;;;;;;;10.13;2.10;;;16.60;99.90;;;;;;5173071;27;20049;-80
2022/10/18 11:53:03;;;;;;;12.57;3.55;;;16.70;99.90;;;;;;5173609;27;20169;-80
2022/10/18 11:55:40;;;;;;;9.50;2.17;;;16.70;99.90;;;;;;5191077;27;20129;-80
2022/10/18 11:58:32;;;;;;;10.43;2.20;;;17.10;99.90;;;;;;5191966;27;20175;-80
2022/10/18 12:01:02;;;;;;;10.20;2.05;;;17.00;99.90;;;;;;5133558;27;20042;-81
2022/10/18 12:03:40;;;;;;;11.00;2.63;;;17.00;99.90;;;;;;5172130;27;20378;-81
2022/10/18 12:06:13;;;;;;;10.13;2.50;;;17.00;99.90;;;;;;5172668;27;20050;-81
2022/10/18 12:08:44;;;;;;;11.18;2.58;;;17.10;99.90;;;;;;5173032;27;20393;-81
2022/10/18 12:11:45;;;;;;;10.70;2.35;;;16.80;99.90;;;;;;5190692;27;20532;-80
2022/10/18 12:14:36;;;;;;;9.82;2.08;;;16.80;99.90;;;;;;5155895;22;20509;-81
2022/10/18 12:17:09;;;;;;;10.60;2.15;;;16.70;99.90;;;;;;5101801;28;20047;-80
2022/10/18 12:19:35;;;;;;;9.15;2.10;;;16.60;99.90;;;;;;5095488;28;20036;-80
2022/10/18 12:22:25;;;;;;;11.35;2.58;;;17.00;99.90;;;;;;5076852;28;20051;-80
2022/10/18 12:24:51;;;;;;;10.32;2.20;;;16.50;99.90;;;;;;5075999;28;20048;-80
2022/10/18 12:27:23;;;;;;;9.13;2.40;;;16.80;99.90;;;;;;5076804;28;20109;-81
2022/10/18 12:29:54;;;;;;;9.30;2.05;;;17.20;99.90;;;;;;5077033;28;20043;-80
2022/10/18 12:32:33;;;;;;;10.15;2.05;;;16.90;99.90;;;;;;5094178;28;20052;-81
2022/10/18 12:35:09;;;;;;;11.35;1.92;;;16.90;99.90;;;;;;5076974;28;20047;-80
2022/10/18 12:37:52;;;;;;;9.07;1.77;;;17.00;99.90;;;;;;5094094;28;20087;-80
2022/10/18 12:40:28;;;;;;;7.40;1.70;;;16.80;99.90;;;;;;5076267;28;20040;-81
2022/10/18 12:42:56;;;;;;;10.05;1.80;;;16.50;99.90;;;;;;5095174;28;20079;-80
2022/10/18 12:45:31;;;;;;;8.48;1.88;;;16.50;99.90;;;;;;5075287;28;20046;-81
2022/10/18 12:48:07;;;;;;;10.75;2.03;;;16.60;99.90;;;;;;5076218;28;20089;-81
2022/10/18 12:50:41;;;;;;;12.27;1.77;;;16.70;99.90;;;;;;5076309;28;20122;-81
2022/10/18 12:53:25;;;;;;;9.85;2.10;;;16.80;99.90;;;;;;5075776;28;20044;-80
2022/10/18 12:55:52;;;;;;;10.27;2.22;;;17.20;99.90;;;;;;5076369;28;20097;-80
2022/10/18 12:58:30;;;;;;;9.40;1.80;;;17.40;99.90;;;;;;5093818;28;20055;-81
2022/10/18 13:01:01;;;;;;;9.68;1.75;;;17.70;99.90;;;;;;5094453;28;20044;-80
2022/10/18 13:03:40;;;;;;;11.00;3.03;;;17.80;99.90;;;;;;5094356;28;20040;-81
2022/10/18 13:06:06;;;;;;;10.77;1.83;;;17.80;99.90;;;;;;5093615;28;20036;-81
2022/10/18 13:08:37;;;;;;;8.40;1.55;;;17.80;99.90;;;;;;5076425;28;20052;-81
2022/10/18 13:11:14;;;;;;;8.57;2.38;;;17.80;99.90;;;;;;5094111;28;20434;-82
2022/10/18 13:14:04;;;;;;;8.43;2.00;;;17.60;99.90;;;;;;5093420;28;20492;-81
2022/10/18 13:16:45;;;;;;;9.35;2.13;;;17.80;99.90;;;;;;5093814;28;20063;-82
2022/10/18 13:19:17;;;;;;;12.32;1.83;;;17.70;99.90;;;;;;5092889;28;20028;-82
2022/10/18 13:21:58;;;;;;;10.07;1.77;;;17.70;99.90;;;;;;5075595;28;20047;-82
2022/10/18 13:24:34;;;;;;;9.90;1.90;;;17.80;99.90;;;;;;5092563;28;20036;-82
2022/10/18 13:27:27;;;;;;;8.07;1.70;;;17.90;99.90;;;;;;5072772;28;20491;-83
2022/10/18 13:30:04;;;;;;;11.40;2.47;;;17.60;99.90;;;;;;5093317;28;20157;-83
2022/10/18 13:33:02;;;;;;;10.10;1.98;;;17.40;99.90;;;;;;5102852;22;20308;-81
2022/10/18 13:35:58;;;;;;;8.07;1.75;;;16.90;99.90;;;;;;5094897;28;20043;-81
2022/10/18 13:38:46;;;;;;;10.73;2.10;;;16.60;99.90;;;;;;5096249;28;20048;-83
2022/10/18 13:41:21;;;;;;;11.88;2.25;;;16.50;99.90;;;;;;5094662;28;20040;-85
2022/10/18 13:43:50;;;;;;;10.05;1.85;;;16.80;99.90;;;;;;5114288;28;20056;-82
2022/10/18 13:46:15;;;;;;;8.27;1.75;;;16.90;99.90;;;;;;5095237;28;20044;-82
2022/10/18 13:48:48;;;;;;;7.75;1.80;;;16.80;99.90;;;;;;5094877;28;20550;-81
2022/10/18 13:51:37;;;;;;;9.40;1.90;;;16.80;99.90;;;;;;5089266;28;20123;-82